sensor_id;sensor_type;location;lat;lon;timestamp;pressure;altitude;pressure_sealevel;temperature;humidity
10470;BME280;5282;47.052;15.458;2022-12-18T00:02:24;98853.50;;;-2.34;100.00
10470;BME280;5282;47.052;15.458;2022-12-18T00:04:54;98858.63;;;-2.55;100.00
10470;BME280;5282;47.052;15.458;2022-12-18T00:07:21;98861.81;;;-2.45;100.00
10470;BME280;5282;47.052;15.458;2022-12-18T00:09:48;98863.97;;;-2.56;100.00
10470;BME280;5282;47.052;15.458;2022-12-18T00:12:15;98862.31;;;-2.86;100.00
10470;BME280;5282;47.052;15.458;2022-12-18T00:14:44;98863.22;;;-2.60;100.00
10470;BME280;5282;47.052;15.458;2022-12-18T00:17:11;98871.13;;;-2.60;100.00
10470;BME280;5282;47.052;15.458;2022-12-18T00:19:38;98875.59;;;-2.62;100.00
10470;BME280;5282;47.052;15.458;2022-12-18T00:22:06;98882.03;;;-2.45;100.00
10470;BME280;5282;47.052;15.458;2022-12-18T00:24:33;98876.19;;;-2.54;100.00
10470;BME280;5282;47.052;15.458;2022-12-18T00:27:00;98890.66;;;-2.66;100.00
10470;BME280;5282;47.052;15.458;2022-12-18T00:29:27;98884.59;;;-2.69;100.00
10470;BME280;5282;47.052;15.458;2022-12-18T00:31:53;98886.13;;;-2.62;100.00
10470;BME280;5282;47.052;15.458;2022-12-18T00:34:20;98896.38;;;-2.53;100.00
10470;BME280;5282;47.052;15.458;2022-12-18T00:36:47;98896.22;;;-2.75;100.00
10470;BME280;5282;47.052;15.458;2022-12-18T00:39:16;98902.34;;;-2.74;100.00
10470;BME280;5282;47.052;15.458;2022-12-18T00:41:43;98903.97;;;-2.70;100.00
10470;BME280;5282;47.052;15.458;2022-12-18T00:44:28;98905.59;;;-2.66;100.00
10470;BME280;5282;47.052;15.458;2022-12-18T00:46:55;98907.41;;;-2.68;100.00
10470;BME280;5282;47.052;15.458;2022-12-18T00:49:22;98908.53;;;-2.75;100.00
10470;BME280;5282;47.052;15.458;2022-12-18T00:51:49;98917.53;;;-3.10;100.00
10470;BME280;5282;47.052;15.458;2022-12-18T00:54:17;98915.91;;;-3.14;100.00
10470;BME280;5282;47.052;15.458;2022-12-18T00:56:44;98913.59;;;-3.24;100.00
10470;BME280;5282;47.052;15.458;2022-12-18T00:59:11;98913.22;;;-3.12;100.00
10470;BME280;5282;47.052;15.458;2022-12-18T01:01:38;98916.81;;;-3.15;100.00
10470;BME280;5282;47.052;15.458;2022-12-18T01:04:05;98916.78;;;-3.13;100.00
10470;BME280;5282;47.052;15.458;2022-12-18T01:06:32;98916.47;;;-3.04;100.00
10470;BME280;5282;47.052;15.458;2022-12-18T01:08:59;98926.19;;;-3.06;100.00
10470;BME280;5282;47.052;15.458;2022-12-18T01:11:27;98921.28;;;-3.17;100.00
10470;BME280;5282;47.052;15.458;2022-12-18T01:13:57;98929.97;;;-3.15;100.00
10470;BME280;5282;47.052;15.458;2022-12-18T01:16:24;98934.16;;;-3.07;100.00
10470;BME280;5282;47.052;15.458;2022-12-18T01:18:51;98933.91;;;-3.28;100.00
10470;BME280;5282;47.052;15.458;2022-12-18T01:21:19;98939.59;;;-3.12;100.00
10470;BME280;5282;47.052;15.458;2022-12-18T01:23:46;98942.16;;;-3.11;100.00
10470;BME280;5282;47.052;15.458;2022-12-18T01:26:14;98947.34;;;-3.07;100.00
10470;BME280;5282;47.052;15.458;2022-12-18T01:28:43;98947.34;;;-3.07;100.00
10470;BME280;5282;47.052;15.458;2022-12-18T01:31:17;98945.69;;;-3.12;100.00
10470;BME280;5282;47.052;15.458;2022-12-18T01:33:44;98945.44;;;-3.32;100.00
10470;BME280;5282;47.052;15.458;2022-12-18T01:36:16;98952.88;;;-3.47;100.00
10470;BME280;5282;47.052;15.458;2022-12-18T01:38:43;98959.06;;;-3.48;100.00
10470;BME280;5282;47.052;15.458;2022-12-18T01:41:11;98956.34;;;-3.45;100.00
10470;BME280;5282;47.052;15.458;2022-12-18T01:43:51;98962.50;;;-3.46;100.00
10470;BME280;5282;47.052;15.458;2022-12-18T01:46:19;98967.44;;;-3.33;100.00
10470;BME280;5282;47.052;15.458;2022-12-18T01:48:48;98963.97;;;-3.35;100.00
10470;BME280;5282;47.052;15.458;2022-12-18T01:51:16;98969.72;;;-3.52;100.00
10470;BME280;5282;47.052;15.458;2022-12-18T01:53:44;98975.88;;;-3.85;100.00
10470;BME280;5282;47.052;15.458;2022-12-18T01:56:14;98976.00;;;-3.88;100.00
10470;BME280;5282;47.052;15.458;2022-12-18T01:58:50;98979.00;;;-3.70;100.00
10470;BME280;5282;47.052;15.458;2022-12-18T02:01:20;98985.66;;;-3.57;100.00
10470;BME280;5282;47.052;15.458;2022-12-18T02:03:51;98983.88;;;-3.88;100.00
10470;BME280;5282;47.052;15.458;2022-12-18T02:06:21;98995.13;;;-3.83;100.00
10470;BME280;5282;47.052;15.458;2022-12-18T02:09:01;98986.97;;;-3.74;100.00
10470;BME280;5282;47.052;15.458;2022-12-18T02:11:39;98987.03;;;-3.75;100.00
10470;BME280;5282;47.052;15.458;2022-12-18T02:14:17;98991.44;;;-3.76;100.00
10470;BME280;5282;47.052;15.458;2022-12-18T02:16:50;98992.16;;;-3.70;100.00
10470;BME280;5282;47.052;15.458;2022-12-18T02:19:32;98993.41;;;-3.84;100.00
10470;BME280;5282;47.052;15.458;2022-12-18T02:22:17;98997.13;;;-3.91;100.00
10470;BME280;5282;47.052;15.458;2022-12-18T02:24:57;99004.81;;;-4.16;100.00
10470;BME280;5282;47.052;15.458;2022-12-18T02:27:29;99010.66;;;-4.07;100.00
10470;BME280;5282;47.052;15.458;2022-12-18T02:30:00;99008.03;;;-4.05;100.00
10470;BME280;5282;47.052;15.458;2022-12-18T02:32:30;99008.47;;;-4.22;100.00
10470;BME280;5282;47.052;15.458;2022-12-18T02:34:59;99013.03;;;-4.30;100.00
10470;BME280;5282;47.052;15.458;2022-12-18T02:37:29;99007.69;;;-4.27;100.00
10470;BME280;5282;47.052;15.458;2022-12-18T02:39:58;98992.56;;;-4.19;100.00
10470;BME280;5282;47.052;15.458;2022-12-18T02:42:27;98988.41;;;-3.93;100.00
10470;BME280;5282;47.052;15.458;2022-12-18T02:44:54;99000.41;;;-3.83;100.00
10470;BME280;5282;47.052;15.458;2022-12-18T02:47:23;99000.16;;;-4.07;100.00
10470;BME280;5282;47.052;15.458;2022-12-18T02:49:58;99010.34;;;-3.94;100.00
10470;BME280;5282;47.052;15.458;2022-12-18T02:52:33;99011.19;;;-4.27;100.00
10470;BME280;5282;47.052;15.458;2022-12-18T02:55:12;99017.69;;;-4.42;100.00
10470;BME280;5282;47.052;15.458;2022-12-18T02:57:46;99017.00;;;-4.50;100.00
10470;BME280;5282;47.052;15.458;2022-12-18T03:00:18;99020.19;;;-4.36;100.00
10470;BME280;5282;47.052;15.458;2022-12-18T03:02:52;99024.94;;;-4.15;100.00
10470;BME280;5282;47.052;15.458;2022-12-18T03:05:25;99020.59;;;-4.18;100.00
10470;BME280;5282;47.052;15.458;2022-12-18T03:07:57;99028.97;;;-4.37;100.00
10470;BME280;5282;47.052;15.458;2022-12-18T03:10:28;99031.72;;;-4.41;100.00
10470;BME280;5282;47.052;15.458;2022-12-18T03:13:00;99036.13;;;-4.43;100.00
10470;BME280;5282;47.052;15.458;2022-12-18T03:15:30;99039.84;;;-4.14;100.00
10470;BME280;5282;47.052;15.458;2022-12-18T03:18:04;99043.25;;;-4.12;100.00
10470;BME280;5282;47.052;15.458;2022-12-18T03:20:37;99043.00;;;-4.38;100.00
10470;BME280;5282;47.052;15.458;2022-12-18T03:23:09;99037.16;;;-4.49;100.00
10470;BME280;5282;47.052;15.458;2022-12-18T03:25:41;99036.81;;;-4.35;100.00
10470;BME280;5282;47.052;15.458;2022-12-18T03:28:13;99032.78;;;-4.14;100.00
10470;BME280;5282;47.052;15.458;2022-12-18T03:30:43;99025.25;;;-4.28;100.00
10470;BME280;5282;47.052;15.458;2022-12-18T03:33:15;99030.44;;;-4.62;100.00
10470;BME280;5282;47.052;15.458;2022-12-18T03:35:45;99032.53;;;-4.39;100.00
10470;BME280;5282;47.052;15.458;2022-12-18T03:38:15;99042.53;;;-4.54;100.00
10470;BME280;5282;47.052;15.458;2022-12-18T03:40:56;99045.16;;;-4.54;100.00
10470;BME280;5282;47.052;15.458;2022-12-18T03:43:35;99044.34;;;-4.57;100.00
10470;BME280;5282;47.052;15.458;2022-12-18T03:46:09;99035.28;;;-4.44;100.00
10470;BME280;5282;47.052;15.458;2022-12-18T03:48:42;99030.81;;;-4.40;100.00
10470;BME280;5282;47.052;15.458;2022-12-18T03:51:14;99043.88;;;-4.75;100.00
10470;BME280;5282;47.052;15.458;2022-12-18T03:53:48;99051.19;;;-4.50;100.00
10470;BME280;5282;47.052;15.458;2022-12-18T03:56:19;99059.84;;;-4.45;100.00
10470;BME280;5282;47.052;15.458;2022-12-18T03:58:50;99063.78;;;-4.65;100.00
10470;BME280;5282;47.052;15.458;2022-12-18T04:01:20;99054.94;;;-4.60;100.00
10470;BME280;5282;47.052;15.458;2022-12-18T04:03:50;99050.78;;;-4.71;100.00
10470;BME280;5282;47.052;15.458;2022-12-18T04:06:18;99063.22;;;-4.77;100.00
10470;BME280;5282;47.052;15.458;2022-12-18T04:08:46;99064.09;;;-4.78;100.00
10470;BME280;5282;47.052;15.458;2022-12-18T04:11:13;99075.19;;;-4.66;100.00
10470;BME280;5282;47.052;15.458;2022-12-18T04:13:42;99075.00;;;-4.56;100.00
10470;BME280;5282;47.052;15.458;2022-12-18T04:16:10;99068.41;;;-4.74;100.00
10470;BME280;5282;47.052;15.458;2022-12-18T04:18:37;99057.50;;;-4.57;100.00
10470;BME280;5282;47.052;15.458;2022-12-18T04:21:04;99065.22;;;-4.51;100.00
10470;BME280;5282;47.052;15.458;2022-12-18T04:23:31;99066.53;;;-4.69;100.00
10470;BME280;5282;47.052;15.458;2022-12-18T04:25:58;99072.41;;;-4.97;100.00
10470;BME280;5282;47.052;15.458;2022-12-18T04:28:25;99082.28;;;-4.68;100.00
10470;BME280;5282;47.052;15.458;2022-12-18T04:30:52;99088.28;;;-4.62;100.00
10470;BME280;5282;47.052;15.458;2022-12-18T04:33:20;99104.84;;;-5.00;100.00
10470;BME280;5282;47.052;15.458;2022-12-18T04:35:47;99098.09;;;-4.71;100.00
10470;BME280;5282;47.052;15.458;2022-12-18T04:38:14;99097.06;;;-4.63;100.00
10470;BME280;5282;47.052;15.458;2022-12-18T04:40:41;99095.38;;;-4.66;100.00
10470;BME280;5282;47.052;15.458;2022-12-18T04:43:07;99100.59;;;-4.65;100.00
10470;BME280;5282;47.052;15.458;2022-12-18T04:45:34;99099.69;;;-4.62;100.00
10470;BME280;5282;47.052;15.458;2022-12-18T04:48:02;99097.06;;;-4.63;100.00
10470;BME280;5282;47.052;15.458;2022-12-18T04:50:31;99105.00;;;-4.65;100.00
10470;BME280;5282;47.052;15.458;2022-12-18T04:52:58;99114.78;;;-4.72;100.00
10470;BME280;5282;47.052;15.458;2022-12-18T04:55:26;99128.66;;;-5.07;100.00
10470;BME280;5282;47.052;15.458;2022-12-18T04:57:53;99134.16;;;-5.21;100.00
10470;BME280;5282;47.052;15.458;2022-12-18T05:00:21;99128.66;;;-5.09;100.00
10470;BME280;5282;47.052;15.458;2022-12-18T05:02:48;99130.69;;;-5.22;100.00
10470;BME280;5282;47.052;15.458;2022-12-18T05:05:15;99128.56;;;-5.03;100.00
10470;BME280;5282;47.052;15.458;2022-12-18T05:07:43;99126.44;;;-4.85;100.00
10470;BME280;5282;47.052;15.458;2022-12-18T05:10:10;99126.50;;;-4.88;100.00
10470;BME280;5282;47.052;15.458;2022-12-18T05:12:37;99131.59;;;-4.79;100.00
10470;BME280;5282;47.052;15.458;2022-12-18T05:15:24;99131.50;;;-4.76;100.00
10470;BME280;5282;47.052;15.458;2022-12-18T05:17:51;99139.38;;;-4.76;100.00
10470;BME280;5282;47.052;15.458;2022-12-18T05:20:18;99148.50;;;-4.92;100.00
10470;BME280;5282;47.052;15.458;2022-12-18T05:22:46;99143.91;;;-4.83;100.00
10470;BME280;5282;47.052;15.458;2022-12-18T05:25:13;99154.09;;;-5.11;100.00
10470;BME280;5282;47.052;15.458;2022-12-18T05:27:40;99160.38;;;-5.18;100.00
10470;BME280;5282;47.052;15.458;2022-12-18T05:30:08;99158.22;;;-4.98;100.00
10470;BME280;5282;47.052;15.458;2022-12-18T05:32:35;99159.59;;;-4.78;100.00
10470;BME280;5282;47.052;15.458;2022-12-18T05:35:03;99163.19;;;-5.28;100.00
10470;BME280;5282;47.052;15.458;2022-12-18T05:37:30;99166.78;;;-5.35;100.00
10470;BME280;5282;47.052;15.458;2022-12-18T05:39:59;99173.81;;;-5.35;100.00
10470;BME280;5282;47.052;15.458;2022-12-18T05:42:26;99174.91;;;-5.49;100.00
10470;BME280;5282;47.052;15.458;2022-12-18T05:44:53;99175.81;;;-5.50;100.00
10470;BME280;5282;47.052;15.458;2022-12-18T05:47:20;99172.88;;;-5.31;100.00
10470;BME280;5282;47.052;15.458;2022-12-18T05:49:47;99175.63;;;-5.39;100.00
10470;BME280;5282;47.052;15.458;2022-12-18T05:52:13;99176.50;;;-5.38;100.00
10470;BME280;5282;47.052;15.458;2022-12-18T05:54:40;99181.47;;;-5.23;100.00
10470;BME280;5282;47.052;15.458;2022-12-18T05:57:09;99173.50;;;-5.18;100.00
10470;BME280;5282;47.052;15.458;2022-12-18T05:59:36;99172.34;;;-5.02;100.00
10470;BME280;5282;47.052;15.458;2022-12-18T06:02:03;99171.53;;;-5.07;100.00
10470;BME280;5282;47.052;15.458;2022-12-18T06:04:29;99179.47;;;-5.08;100.00
10470;BME280;5282;47.052;15.458;2022-12-18T06:06:56;99187.31;;;-5.07;100.00
10470;BME280;5282;47.052;15.458;2022-12-18T06:09:23;99187.91;;;-4.94;100.00
10470;BME280;5282;47.052;15.458;2022-12-18T06:11:51;99192.03;;;-4.79;100.00
10470;BME280;5282;47.052;15.458;2022-12-18T06:14:20;99194.44;;;-5.14;100.00
10470;BME280;5282;47.052;15.458;2022-12-18T06:16:47;99182.66;;;-4.94;100.00
10470;BME280;5282;47.052;15.458;2022-12-18T06:19:15;99189.44;;;-4.82;100.00
10470;BME280;5282;47.052;15.458;2022-12-18T06:21:42;99200.44;;;-5.07;100.00
10470;BME280;5282;47.052;15.458;2022-12-18T06:24:09;99207.81;;;-5.28;100.00
10470;BME280;5282;47.052;15.458;2022-12-18T06:26:37;99206.63;;;-5.09;100.00
10470;BME280;5282;47.052;15.458;2022-12-18T06:29:04;99216.75;;;-4.89;100.00
10470;BME280;5282;47.052;15.458;2022-12-18T06:31:33;99220.69;;;-5.12;100.00
10470;BME280;5282;47.052;15.458;2022-12-18T06:34:02;99226.16;;;-5.24;100.00
10470;BME280;5282;47.052;15.458;2022-12-18T06:36:29;99226.28;;;-5.34;100.00
10470;BME280;5282;47.052;15.458;2022-12-18T06:38:56;99230.66;;;-5.33;100.00
10470;BME280;5282;47.052;15.458;2022-12-18T06:41:24;99232.72;;;-5.00;100.00
10470;BME280;5282;47.052;15.458;2022-12-18T06:43:51;99236.03;;;-4.90;100.00
10470;BME280;5282;47.052;15.458;2022-12-18T06:46:18;99232.69;;;-4.99;100.00
10470;BME280;5282;47.052;15.458;2022-12-18T06:48:48;99230.47;;;-4.73;100.00
10470;BME280;5282;47.052;15.458;2022-12-18T06:51:18;99230.88;;;-4.97;100.00
10470;BME280;5282;47.052;15.458;2022-12-18T06:53:45;99238.63;;;-4.89;100.00
10470;BME280;5282;47.052;15.458;2022-12-18T06:56:12;99241.88;;;-4.74;100.00
10470;BME280;5282;47.052;15.458;2022-12-18T06:58:39;99242.09;;;-4.87;100.00
10470;BME280;5282;47.052;15.458;2022-12-18T07:01:08;99253.25;;;-4.74;100.00
10470;BME280;5282;47.052;15.458;2022-12-18T07:03:36;99258.94;;;-4.52;100.00
10470;BME280;5282;47.052;15.458;2022-12-18T07:06:05;99251.66;;;-4.37;100.00
10470;BME280;5282;47.052;15.458;2022-12-18T07:08:32;99250.56;;;-4.28;100.00
10470;BME280;5282;47.052;15.458;2022-12-18T07:11:03;99254.25;;;-4.36;100.00
10470;BME280;5282;47.052;15.458;2022-12-18T07:13:30;99261.47;;;-4.47;100.00
10470;BME280;5282;47.052;15.458;2022-12-18T07:16:03;99260.41;;;-4.37;100.00
10470;BME280;5282;47.052;15.458;2022-12-18T07:18:30;99257.06;;;-4.46;100.00
10470;BME280;5282;47.052;15.458;2022-12-18T07:20:57;99263.75;;;-4.30;100.00
10470;BME280;5282;47.052;15.458;2022-12-18T07:23:26;99265.72;;;-4.40;100.00
10470;BME280;5282;47.052;15.458;2022-12-18T07:25:52;99272.75;;;-4.42;100.00
10470;BME280;5282;47.052;15.458;2022-12-18T07:28:19;99268.63;;;-4.11;100.00
10470;BME280;5282;47.052;15.458;2022-12-18T07:30:47;99268.63;;;-4.11;100.00
10470;BME280;5282;47.052;15.458;2022-12-18T07:33:14;99276.34;;;-4.04;100.00
10470;BME280;5282;47.052;15.458;2022-12-18T07:35:41;99289.09;;;-3.85;100.00
10470;BME280;5282;47.052;15.458;2022-12-18T07:38:08;99281.94;;;-3.78;100.00
10470;BME280;5282;47.052;15.458;2022-12-18T07:40:36;99282.88;;;-3.81;100.00
10470;BME280;5282;47.052;15.458;2022-12-18T07:43:03;99274.63;;;-3.65;100.00
10470;BME280;5282;47.052;15.458;2022-12-18T07:45:30;99289.41;;;-3.99;100.00
10470;BME280;5282;47.052;15.458;2022-12-18T07:47:58;99293.47;;;-3.84;100.00
10470;BME280;5282;47.052;15.458;2022-12-18T07:50:27;99285.16;;;-3.65;100.00
10470;BME280;5282;47.052;15.458;2022-12-18T07:52:54;99290.09;;;-3.89;100.00
10470;BME280;5282;47.052;15.458;2022-12-18T07:55:22;99294.94;;;-3.70;100.00
10470;BME280;5282;47.052;15.458;2022-12-18T07:57:50;99298.84;;;-3.49;100.00
10470;BME280;5282;47.052;15.458;2022-12-18T08:00:17;99296.03;;;-3.42;100.00
10470;BME280;5282;47.052;15.458;2022-12-18T08:02:44;99305.13;;;-3.55;100.00
10470;BME280;5282;47.052;15.458;2022-12-18T08:05:11;99312.47;;;-3.69;100.00
10470;BME280;5282;47.052;15.458;2022-12-18T08:07:39;99312.88;;;-3.49;100.00
10470;BME280;5282;47.052;15.458;2022-12-18T08:10:07;99309.72;;;-3.65;100.00
10470;BME280;5282;47.052;15.458;2022-12-18T08:12:35;99308.13;;;-3.72;100.00
10470;BME280;5282;47.052;15.458;2022-12-18T08:15:04;99309.81;;;-3.30;100.00
10470;BME280;5282;47.052;15.458;2022-12-18T08:17:30;99308.91;;;-3.29;100.00
10470;BME280;5282;47.052;15.458;2022-12-18T08:19:58;99311.38;;;-3.23;100.00
10470;BME280;5282;47.052;15.458;2022-12-18T08:22:24;99315.91;;;-3.28;100.00
10470;BME280;5282;47.052;15.458;2022-12-18T08:24:51;99332.72;;;-3.34;100.00
10470;BME280;5282;47.052;15.458;2022-12-18T08:27:18;99328.47;;;-3.03;100.00
10470;BME280;5282;47.052;15.458;2022-12-18T08:29:45;99312.53;;;-2.64;100.00
10470;BME280;5282;47.052;15.458;2022-12-18T08:32:16;99299.63;;;-2.42;100.00
10470;BME280;5282;47.052;15.458;2022-12-18T08:34:43;99288.84;;;-2.34;100.00
10470;BME280;5282;47.052;15.458;2022-12-18T08:37:09;99288.69;;;-2.28;100.00
10470;BME280;5282;47.052;15.458;2022-12-18T08:39:36;99298.84;;;-2.45;100.00
10470;BME280;5282;47.052;15.458;2022-12-18T08:42:03;99312.03;;;-2.79;100.00
10470;BME280;5282;47.052;15.458;2022-12-18T08:44:47;99309.03;;;-2.65;100.00
10470;BME280;5282;47.052;15.458;2022-12-18T08:47:15;99308.66;;;-2.51;100.00
10470;BME280;5282;47.052;15.458;2022-12-18T08:49:42;99308.97;;;-2.30;100.00
10470;BME280;5282;47.052;15.458;2022-12-18T08:52:09;99312.34;;;-2.25;100.00
10470;BME280;5282;47.052;15.458;2022-12-18T08:54:36;99317.72;;;-2.29;100.00
10470;BME280;5282;47.052;15.458;2022-12-18T08:57:03;99315.84;;;-2.24;100.00
10470;BME280;5282;47.052;15.458;2022-12-18T08:59:30;99311.78;;;-1.75;100.00
10470;BME280;5282;47.052;15.458;2022-12-18T09:01:57;99309.31;;;-1.24;100.00
10470;BME280;5282;47.052;15.458;2022-12-18T09:04:25;99323.41;;;-0.97;100.00
10470;BME280;5282;47.052;15.458;2022-12-18T09:06:52;99322.53;;;-0.45;100.00
10470;BME280;5282;47.052;15.458;2022-12-18T09:09:19;99311.41;;;-0.29;100.00
10470;BME280;5282;47.052;15.458;2022-12-18T09:11:48;99313.09;;;-0.03;100.00
10470;BME280;5282;47.052;15.458;2022-12-18T09:14:15;99313.72;;;0.04;100.00
10470;BME280;5282;47.052;15.458;2022-12-18T09:16:42;99315.31;;;0.32;100.00
10470;BME280;5282;47.052;15.458;2022-12-18T09:19:09;99318.97;;;0.29;100.00
10470;BME280;5282;47.052;15.458;2022-12-18T09:21:38;99326.19;;;0.24;100.00
10470;BME280;5282;47.052;15.458;2022-12-18T09:24:05;99324.16;;;0.32;100.00
10470;BME280;5282;47.052;15.458;2022-12-18T09:26:32;99333.28;;;0.47;100.00
10470;BME280;5282;47.052;15.458;2022-12-18T09:28:59;99326.88;;;0.75;100.00
10470;BME280;5282;47.052;15.458;2022-12-18T09:31:26;99333.09;;;0.06;100.00
10470;BME280;5282;47.052;15.458;2022-12-18T09:33:54;99330.41;;;-0.18;100.00
10470;BME280;5282;47.052;15.458;2022-12-18T09:36:21;99332.94;;;0.33;100.00
10470;BME280;5282;47.052;15.458;2022-12-18T09:38:49;99335.03;;;0.24;100.00
10470;BME280;5282;47.052;15.458;2022-12-18T09:41:34;99328.66;;;0.74;100.00
10470;BME280;5282;47.052;15.458;2022-12-18T09:44:11;99321.91;;;1.10;100.00
10470;BME280;5282;47.052;15.458;2022-12-18T09:46:45;99323.81;;;1.49;100.00
10470;BME280;5282;47.052;15.458;2022-12-18T09:49:16;99312.38;;;1.89;100.00
10470;BME280;5282;47.052;15.458;2022-12-18T09:51:47;99316.25;;;1.61;100.00
10470;BME280;5282;47.052;15.458;2022-12-18T09:54:20;99313.31;;;1.88;100.00
10470;BME280;5282;47.052;15.458;2022-12-18T09:56:49;99308.00;;;1.88;100.00
10470;BME280;5282;47.052;15.458;2022-12-18T09:59:21;99311.31;;;2.31;100.00
10470;BME280;5282;47.052;15.458;2022-12-18T10:01:50;99309.00;;;2.61;100.00
10470;BME280;5282;47.052;15.458;2022-12-18T10:04:17;99310.78;;;2.61;95.83
10470;BME280;5282;47.052;15.458;2022-12-18T10:06:49;99308.59;;;2.33;98.53
10470;BME280;5282;47.052;15.458;2022-12-18T10:09:27;99297.38;;;2.45;100.00
10470;BME280;5282;47.052;15.458;2022-12-18T10:12:02;99298.44;;;1.21;100.00
10470;BME280;5282;47.052;15.458;2022-12-18T10:14:36;99301.38;;;1.77;100.00
10470;BME280;5282;47.052;15.458;2022-12-18T10:17:14;99311.25;;;0.89;100.00
10470;BME280;5282;47.052;15.458;2022-12-18T10:19:50;99308.84;;;0.63;100.00
10470;BME280;5282;47.052;15.458;2022-12-18T10:22:27;99304.31;;;1.50;100.00
10470;BME280;5282;47.052;15.458;2022-12-18T10:25:03;99301.56;;;1.31;100.00
10470;BME280;5282;47.052;15.458;2022-12-18T10:27:31;99308.69;;;0.66;100.00
10470;BME280;5282;47.052;15.458;2022-12-18T10:30:00;99310.53;;;0.41;100.00
10470;BME280;5282;47.052;15.458;2022-12-18T10:32:29;99310.94;;;0.30;100.00
10470;BME280;5282;47.052;15.458;2022-12-18T10:34:57;99312.38;;;-0.08;100.00
10470;BME280;5282;47.052;15.458;2022-12-18T10:37:28;99314.97;;;-0.30;100.00
10470;BME280;5282;47.052;15.458;2022-12-18T10:40:14;99319.69;;;-0.91;100.00
10470;BME280;5282;47.052;15.458;2022-12-18T10:42:41;99320.22;;;-1.06;100.00
10470;BME280;5282;47.052;15.458;2022-12-18T10:45:11;99317.19;;;-0.69;100.00
10470;BME280;5282;47.052;15.458;2022-12-18T10:47:42;99308.66;;;-1.04;100.00
10470;BME280;5282;47.052;15.458;2022-12-18T10:50:19;99308.94;;;-1.68;100.00
10470;BME280;5282;47.052;15.458;2022-12-18T10:52:54;99306.81;;;-1.86;100.00
10470;BME280;5282;47.052;15.458;2022-12-18T10:55:24;99301.88;;;-1.98;100.00
10470;BME280;5282;47.052;15.458;2022-12-18T10:57:53;99296.34;;;-2.19;100.00
10470;BME280;5282;47.052;15.458;2022-12-18T11:00:23;99293.00;;;-1.95;100.00
10470;BME280;5282;47.052;15.458;2022-12-18T11:02:51;99294.31;;;-2.10;100.00
10470;BME280;5282;47.052;15.458;2022-12-18T11:05:27;99305.56;;;-2.35;100.00
10470;BME280;5282;47.052;15.458;2022-12-18T11:07:55;99297.66;;;-1.74;100.00
10470;BME280;5282;47.052;15.458;2022-12-18T11:10:28;99292.38;;;-1.45;100.00
10470;BME280;5282;47.052;15.458;2022-12-18T11:13:11;99305.31;;;-1.37;100.00
10470;BME280;5282;47.052;15.458;2022-12-18T11:15:40;99306.13;;;-1.34;100.00
10470;BME280;5282;47.052;15.458;2022-12-18T11:18:16;99301.22;;;-1.46;100.00
10470;BME280;5282;47.052;15.458;2022-12-18T11:20:50;99300.03;;;-1.66;100.00
10470;BME280;5282;47.052;15.458;2022-12-18T11:23:21;99290.22;;;-1.61;100.00
10470;BME280;5282;47.052;15.458;2022-12-18T11:25:58;99291.84;;;-1.28;100.00
10470;BME280;5282;47.052;15.458;2022-12-18T11:28:37;99291.41;;;-1.71;100.00
10470;BME280;5282;47.052;15.458;2022-12-18T11:31:18;99298.59;;;-1.48;100.00
10470;BME280;5282;47.052;15.458;2022-12-18T11:33:51;99289.03;;;-2.09;100.00
10470;BME280;5282;47.052;15.458;2022-12-18T11:36:22;99289.06;;;-1.80;100.00
10470;BME280;5282;47.052;15.458;2022-12-18T11:38:51;99277.78;;;-1.57;100.00
10470;BME280;5282;47.052;15.458;2022-12-18T11:41:27;99274.22;;;-1.56;100.00
10470;BME280;5282;47.052;15.458;2022-12-18T11:44:18;99278.66;;;-1.87;100.00
10470;BME280;5282;47.052;15.458;2022-12-18T11:46:51;99278.00;;;-2.23;100.00
10470;BME280;5282;47.052;15.458;2022-12-18T11:49:22;99277.13;;;-2.24;100.00
10470;BME280;5282;47.052;15.458;2022-12-18T11:51:57;99275.63;;;-2.03;100.00
10470;BME280;5282;47.052;15.458;2022-12-18T11:54:25;99275.50;;;-2.28;100.00
10470;BME280;5282;47.052;15.458;2022-12-18T11:56:57;99275.78;;;-2.39;100.00
10470;BME280;5282;47.052;15.458;2022-12-18T11:59:33;99281.75;;;-2.32;100.00
10470;BME280;5282;47.052;15.458;2022-12-18T12:02:16;99278.06;;;-2.26;100.00
10470;BME280;5282;47.052;15.458;2022-12-18T12:04:50;99270.28;;;-2.31;100.00
10470;BME280;5282;47.052;15.458;2022-12-18T12:07:35;99264.66;;;-2.19;100.00
10470;BME280;5282;47.052;15.458;2022-12-18T12:10:13;99266.19;;;-2.11;100.00
10470;BME280;5282;47.052;15.458;2022-12-18T12:12:58;99271.31;;;-2.05;100.00
10470;BME280;5282;47.052;15.458;2022-12-18T12:15:33;99265.84;;;-1.99;100.00
10470;BME280;5282;47.052;15.458;2022-12-18T12:18:08;99280.78;;;-2.28;100.00
10470;BME280;5282;47.052;15.458;2022-12-18T12:20:49;99274.56;;;-1.97;100.00
10470;BME280;5282;47.052;15.458;2022-12-18T12:23:26;99279.84;;;-1.97;100.00
10470;BME280;5282;47.052;15.458;2022-12-18T12:26:01;99285.69;;;-2.47;100.00
10470;BME280;5282;47.052;15.458;2022-12-18T12:28:49;99286.22;;;-2.67;100.00
10470;BME280;5282;47.052;15.458;2022-12-18T12:31:25;99282.75;;;-2.68;100.00
10470;BME280;5282;47.052;15.458;2022-12-18T12:34:00;99291.94;;;-2.83;100.00
10470;BME280;5282;47.052;15.458;2022-12-18T12:36:36;99289.19;;;-2.80;100.00
10470;BME280;5282;47.052;15.458;2022-12-18T12:39:10;99280.88;;;-2.64;100.00
10470;BME280;5282;47.052;15.458;2022-12-18T12:41:39;99280.06;;;-2.35;100.00
10470;BME280;5282;47.052;15.458;2022-12-18T12:44:27;99278.75;;;-2.20;100.00
10470;BME280;5282;47.052;15.458;2022-12-18T12:46:58;99278.94;;;-2.57;100.00
10470;BME280;5282;47.052;15.458;2022-12-18T12:49:31;99277.13;;;-2.55;100.00
10470;BME280;5282;47.052;15.458;2022-12-18T12:52:04;99276.09;;;-2.50;100.00
10470;BME280;5282;47.052;15.458;2022-12-18T12:54:32;99282.50;;;-2.58;100.00
10470;BME280;5282;47.052;15.458;2022-12-18T12:57:02;99281.72;;;-2.30;100.00
10470;BME280;5282;47.052;15.458;2022-12-18T12:59:37;99278.16;;;-2.29;100.00
10470;BME280;5282;47.052;15.458;2022-12-18T13:02:16;99282.94;;;-2.42;100.00
10470;BME280;5282;47.052;15.458;2022-12-18T13:04:48;99275.41;;;-2.25;100.00
10470;BME280;5282;47.052;15.458;2022-12-18T13:07:25;99277.16;;;-2.25;100.00